createdAt,value
2022-11-21T07:35:40.005Z,139381.72
2022-11-21T07:40:43.772Z,139409.84
2022-11-21T07:45:47.678Z,139508.84
2022-11-21T07:50:52.735Z,138880.00
2022-11-21T07:55:59.055Z,139533.31
2022-11-21T08:01:06.251Z,139505.19
2022-11-21T08:06:14.426Z,138933.66
2022-11-21T08:11:18.128Z,139616.50
2022-11-21T08:16:27.899Z,139328.00
2022-11-21T08:21:32.982Z,139363.44
2022-11-21T08:26:36.420Z,139549.19
2022-11-21T08:31:41.013Z,139623.84
2022-11-21T08:36:49.000Z,139606.72
2022-11-21T08:42:04.708Z,139660.53
2022-11-21T08:47:08.790Z,139698.44
2022-11-21T08:52:17.477Z,139722.94
2022-11-21T08:57:24.218Z,139726.59
2022-11-21T09:02:28.068Z,139649.53
2022-11-21T09:07:33.269Z,139628.72
2022-11-21T09:12:37.182Z,139321.84
2022-11-21T09:17:58.386Z,139425.75
2022-11-21T09:23:08.179Z,139524.78
2022-11-21T09:28:15.216Z,139293.75
2022-11-21T09:33:19.005Z,139472.19
2022-11-21T09:38:24.547Z,139296.19
2022-11-21T09:43:39.907Z,139337.75
2022-11-21T09:48:49.697Z,139616.50
2022-11-21T09:53:59.824Z,139589.59
2022-11-21T09:59:16.882Z,139437.97
2022-11-21T10:04:20.763Z,139691.16
2022-11-21T10:09:36.864Z,139176.53
2022-11-21T10:14:53.582Z,139663.00
2022-11-21T10:20:27.401Z,139576.09
2022-11-21T10:25:39.551Z,139833.13
2022-11-21T10:30:45.903Z,139447.75
2022-11-21T10:35:54.570Z,139818.41
2022-11-21T10:41:07.152Z,139797.56
2022-11-21T10:46:11.027Z,139768.19
2022-11-21T10:51:31.305Z,139626.28
2022-11-21T10:56:38.311Z,139803.72
2022-11-21T11:01:55.080Z,139874.75
2022-11-21T11:07:00.586Z,139926.19
2022-11-21T11:12:47.011Z,139940.88
2022-11-21T11:17:54.334Z,139812.28
2022-11-21T11:22:58.076Z,139935.97
2022-11-21T11:28:09.274Z,139868.63
2022-11-21T11:33:35.708Z,139961.66
2022-11-21T11:38:45.192Z,139950.66
2022-11-21T11:44:18.174Z,139670.34
2022-11-21T11:49:30.691Z,139965.34
2022-11-21T11:54:51.462Z,139991.06
2022-11-21T12:00:06.110Z,139971.50
2022-11-21T12:05:22.388Z,140035.22
2022-11-21T12:10:32.432Z,140018.03
2022-11-21T12:15:51.362Z,139964.09
2022-11-21T12:21:02.401Z,140020.47
2022-11-21T12:26:29.983Z,139961.66
2022-11-21T12:31:45.472Z,140007.03
2022-11-21T12:36:56.743Z,139896.78
2022-11-21T12:42:28.751Z,139940.88
2022-11-21T12:48:11.795Z,139943.31
2022-11-21T12:53:44.850Z,140021.69
2022-11-21T12:58:56.929Z,139806.19
2022-11-21T13:04:05.246Z,140015.59
2022-11-21T13:09:14.211Z,139981.28
2022-11-21T13:14:26.352Z,140015.59
2022-11-21T13:19:38.999Z,139966.56
2022-11-21T13:24:59.956Z,139940.88
2022-11-21T13:30:21.941Z,140005.78
2022-11-21T13:36:05.502Z,140014.34
2022-11-21T13:41:30.441Z,139923.75
2022-11-21T13:47:00.189Z,139980.06
2022-11-21T13:52:13.576Z,139960.44
2022-11-21T13:57:42.035Z,139942.09
2022-11-21T14:03:20.333Z,139928.63
2022-11-21T14:08:26.920Z,139661.78
2022-11-21T14:13:39.322Z,139966.56
2022-11-21T14:18:51.881Z,139944.53
2022-11-21T14:24:06.118Z,139940.88
2022-11-21T14:30:02.095Z,139872.28
2022-11-21T14:48:33.804Z,139780.47
2022-11-21T14:53:44.774Z,139671.56
2022-11-21T14:58:49.331Z,139773.13
2022-11-21T15:03:57.229Z,139705.78
2022-11-21T15:10:24.795Z,139780.47
2022-11-21T15:14:32.047Z,139829.44
2022-11-21T15:19:35.890Z,139770.63
2022-11-21T15:24:43.234Z,139817.19
2022-11-21T15:29:47.095Z,139196.09
2022-11-21T15:34:51.183Z,139817.19
2022-11-21T15:39:56.560Z,139828.19
2022-11-21T15:45:01.109Z,139826.97
2022-11-21T15:50:08.932Z,139845.34
2022-11-21T15:55:20.954Z,139587.16
2022-11-21T16:00:25.417Z,139787.81
2022-11-21T16:05:29.657Z,139650.75
2022-11-21T16:10:36.113Z,139793.91
2022-11-21T16:15:41.264Z,139793.91
2022-11-21T16:20:44.753Z,139790.25
2022-11-21T16:25:55.120Z,139770.63
2022-11-21T16:30:59.321Z,139678.91
2022-11-21T16:36:03.117Z,139703.34
2022-11-21T16:41:08.542Z,139765.75
2022-11-21T16:46:13.183Z,139773.13
2022-11-21T16:51:19.138Z,139584.69
2022-11-21T16:56:24.764Z,139758.41
2022-11-21T17:01:29.246Z,139763.31
2022-11-21T17:06:35.771Z,139665.47
2022-11-21T17:11:41.528Z,139656.84
2022-11-21T17:16:45.827Z,139741.25
2022-11-21T17:21:53.838Z,139653.19
2022-11-21T17:27:01.179Z,139736.38
2022-11-21T17:32:04.955Z,139714.34
2022-11-21T17:37:09.187Z,139687.44
2022-11-21T17:42:14.497Z,139561.44
2022-11-21T17:47:18.358Z,139653.19
2022-11-21T17:52:22.264Z,139636.09
2022-11-21T17:57:27.915Z,139620.16
2022-11-21T18:02:31.958Z,139540.63
2022-11-21T18:07:37.846Z,139579.81
2022-11-21T18:12:43.910Z,139560.22
2022-11-21T18:17:47.695Z,139506.41
2022-11-21T18:22:52.072Z,139475.84
2022-11-21T18:27:59.741Z,139446.53
2022-11-21T18:33:04.645Z,139411.09
2022-11-21T18:38:08.526Z,139392.75
2022-11-21T18:43:13.747Z,139291.31
2022-11-21T18:48:19.860Z,139347.50
2022-11-21T18:53:23.643Z,139240.03
2022-11-21T18:58:29.164Z,139210.72
2022-11-21T19:03:37.801Z,139287.66
2022-11-21T19:08:41.843Z,139269.31
2022-11-21T19:13:48.904Z,139185.06
2022-11-21T19:24:19.801Z,139164.34
2022-11-21T19:29:24.964Z,139282.75
2022-11-21T19:34:28.495Z,139279.09
2022-11-21T19:39:34.978Z,139302.31
2022-11-21T19:44:40.483Z,139320.63
2022-11-21T19:49:44.380Z,139315.75
2022-11-21T19:54:49.514Z,139310.88
2022-11-21T19:59:55.800Z,139176.53
2022-11-21T20:04:59.578Z,139148.44
2022-11-21T20:10:03.613Z,139261.97
2022-11-21T20:15:13.308Z,139251.00
2022-11-21T20:20:17.519Z,139220.53
2022-11-21T20:25:23.479Z,139214.38
2022-11-21T20:30:29.673Z,139204.63
2022-11-21T20:35:33.653Z,139124.03
2022-11-21T20:40:37.727Z,139092.28
2022-11-21T20:46:17.024Z,139070.31
2022-11-21T20:56:34.617Z,138930.03
2022-11-21T21:01:40.266Z,139196.09
2022-11-21T21:06:44.070Z,139186.28
2022-11-21T21:11:52.927Z,139186.28
2022-11-21T21:16:59.620Z,138936.09
2022-11-21T21:22:04.970Z,139164.34
2022-11-21T21:27:11.686Z,139178.97
